Time;durP1;ratioP1;P1;durP2;ratioP2;P2;SDS_P1;SDS_P2;PMS_P1;PMS_P2;Temp;Humidity;BMP_temperature;BMP_pressure;BME280_temperature;BME280_humidity;BME280_pressure;Samples;Min_cycle;Max_cycle;Signal;HPM_P1;HPM_P2
2023/10/18 00:01:01;;;;;;;9.67;4.57;;;7.00;99.90;;;;;;4997902;28;20217;-73
2023/10/18 00:03:31;;;;;;;6.40;3.60;;;7.00;99.90;;;;;;5028572;22;20228;-74
2023/10/18 00:06:11;;;;;;;10.57;4.20;;;7.00;99.90;;;;;;5020178;28;20648;-72
2023/10/18 00:08:40;;;;;;;14.30;4.07;;;7.00;99.90;;;;;;5023759;28;20648;-73
2023/10/18 00:11:06;;;;;;;9.63;4.63;;;7.00;99.90;;;;;;5014763;28;20719;-74
2023/10/18 00:13:33;;;;;;;6.10;3.70;;;6.90;99.90;;;;;;5012409;28;20205;-74
2023/10/18 00:16:05;;;;;;;7.73;3.77;;;6.90;99.90;;;;;;5011917;28;20301;-74
2023/10/18 00:18:32;;;;;;;5.93;3.63;;;6.90;99.90;;;;;;5010115;28;20227;-74
2023/10/18 00:21:01;;;;;;;10.13;4.30;;;6.90;99.90;;;;;;5021479;28;20549;-72
2023/10/18 00:23:27;;;;;;;7.40;4.17;;;6.90;99.90;;;;;;5012867;28;20216;-74
2023/10/18 00:25:54;;;;;;;8.33;4.47;;;6.90;99.90;;;;;;5012562;28;20220;-74
2023/10/18 00:28:20;;;;;;;8.43;4.67;;;6.90;99.90;;;;;;5013065;28;20211;-74
2023/10/18 00:30:46;;;;;;;8.27;4.33;;;6.90;99.90;;;;;;5012113;28;20212;-73
2023/10/18 00:33:12;;;;;;;7.47;4.20;;;6.80;99.90;;;;;;5012503;28;20255;-74
2023/10/18 00:35:41;;;;;;;6.23;3.73;;;6.80;99.90;;;;;;5012647;28;20189;-72
2023/10/18 00:38:10;;;;;;;6.57;3.73;;;6.80;99.90;;;;;;5013266;28;20619;-74
2023/10/18 00:40:39;;;;;;;6.20;4.10;;;6.80;99.90;;;;;;5005139;28;20251;-74
2023/10/18 00:45:44;;;;;;;7.30;4.17;;;6.80;99.90;;;;;;5009392;28;20216;-74
2023/10/18 00:48:11;;;;;;;6.50;3.87;;;6.80;99.90;;;;;;5010832;28;20181;-73
2023/10/18 00:50:41;;;;;;;5.00;3.50;;;6.90;99.90;;;;;;5011750;28;20188;-75
2023/10/18 00:53:08;;;;;;;9.33;4.03;;;6.90;99.90;;;;;;5009856;28;20212;-74
2023/10/18 00:55:34;;;;;;;5.23;3.17;;;6.80;99.90;;;;;;5012301;28;20311;-74
2023/10/18 00:58:04;;;;;;;9.03;3.37;;;6.90;99.90;;;;;;5019526;28;20295;-74
2023/10/18 01:00:30;;;;;;;6.50;3.60;;;6.80;99.90;;;;;;5011478;28;20283;-74
2023/10/18 01:03:00;;;;;;;6.33;3.90;;;6.80;99.90;;;;;;5003892;28;20581;-71
2023/10/18 01:05:26;;;;;;;6.93;3.70;;;6.80;99.90;;;;;;5010674;28;20775;-74
2023/10/18 01:07:53;;;;;;;5.93;3.70;;;6.80;99.90;;;;;;5002836;28;20227;-74
2023/10/18 01:10:23;;;;;;;7.97;4.43;;;6.90;99.90;;;;;;5011212;28;20243;-74
2023/10/18 01:12:51;;;;;;;4.97;3.50;;;6.80;99.90;;;;;;5014770;28;20212;-74
2023/10/18 01:15:19;;;;;;;8.90;3.63;;;6.70;99.90;;;;;;5026790;28;20620;-74
2023/10/18 01:17:47;;;;;;;6.10;3.93;;;6.80;99.90;;;;;;5013049;28;20185;-74
2023/10/18 01:20:27;;;;;;;6.50;3.60;;;6.70;99.90;;;;;;5010713;28;20235;-76
2023/10/18 01:22:54;;;;;;;6.50;3.63;;;6.70;99.90;;;;;;5007392;28;20798;-75
2023/10/18 01:25:20;;;;;;;6.80;3.70;;;6.70;99.90;;;;;;5011115;28;20236;-74
2023/10/18 01:27:45;;;;;;;5.93;3.40;;;6.70;99.90;;;;;;5008997;28;20699;-74
2023/10/18 01:30:15;;;;;;;8.60;3.70;;;6.60;99.90;;;;;;5025785;28;20181;-74
2023/10/18 01:32:40;;;;;;;6.10;3.67;;;6.60;99.90;;;;;;5010091;28;20200;-74
2023/10/18 01:35:07;;;;;;;6.67;3.53;;;6.60;99.90;;;;;;5011300;28;20212;-74
2023/10/18 01:37:33;;;;;;;6.47;3.57;;;6.60;99.90;;;;;;5007950;28;20685;-74
2023/10/18 01:40:19;;;;;;;5.97;3.87;;;6.60;99.90;;;;;;5012436;28;20209;-74
2023/10/18 01:42:44;;;;;;;7.13;3.57;;;6.60;99.90;;;;;;5007134;28;20649;-72
2023/10/18 01:45:11;;;;;;;8.07;3.03;;;6.60;99.90;;;;;;5024531;28;20231;-74
2023/10/18 01:47:38;;;;;;;7.70;3.87;;;6.50;99.90;;;;;;5009407;28;20211;-75
2023/10/18 01:50:04;;;;;;;3.93;3.20;;;6.50;99.90;;;;;;5010550;28;20220;-74
2023/10/18 01:52:30;;;;;;;4.43;3.27;;;6.50;99.90;;;;;;5009911;28;20209;-74
2023/10/18 01:54:55;;;;;;;5.13;3.40;;;6.50;99.90;;;;;;5011010;28;20224;-70
2023/10/18 01:57:21;;;;;;;6.30;3.60;;;6.50;99.90;;;;;;5026281;28;20213;-74
2023/10/18 01:59:49;;;;;;;5.53;3.50;;;6.40;99.90;;;;;;5011381;28;20644;-74
2023/10/18 02:02:15;;;;;;;6.33;3.73;;;6.50;99.90;;;;;;5010871;28;20217;-74
2023/10/18 02:04:45;;;;;;;5.30;3.10;;;6.40;99.90;;;;;;5011134;28;20224;-74
2023/10/18 02:07:17;;;;;;;9.20;3.97;;;6.40;99.90;;;;;;5015779;28;20201;-73
2023/10/18 02:09:57;;;;;;;5.97;3.90;;;6.40;99.90;;;;;;5006849;28;20247;-74
2023/10/18 02:12:26;;;;;;;5.80;3.73;;;6.40;99.90;;;;;;5008042;28;20227;-74
2023/10/18 02:14:55;;;;;;;7.10;5.13;;;6.40;99.90;;;;;;5006376;28;20612;-75
2023/10/18 02:17:21;;;;;;;9.47;4.97;;;6.40;99.90;;;;;;5005453;28;20205;-74
2023/10/18 02:19:48;;;;;;;6.67;4.13;;;6.40;99.90;;;;;;5010195;28;20255;-73
2023/10/18 02:22:16;;;;;;;8.00;4.20;;;6.40;99.90;;;;;;5008492;28;20220;-74
2023/10/18 02:24:42;;;;;;;8.23;4.43;;;6.40;99.90;;;;;;5010083;28;20221;-74
2023/10/18 02:27:15;;;;;;;9.43;4.50;;;6.40;99.90;;;;;;5010404;28;20181;-75
2023/10/18 02:29:41;;;;;;;9.90;4.57;;;6.40;99.90;;;;;;5007296;28;20181;-74
2023/10/18 02:32:22;;;;;;;6.60;4.50;;;6.40;99.90;;;;;;5010228;28;20683;-72
2023/10/18 02:34:50;;;;;;;8.33;4.30;;;6.30;99.90;;;;;;5025651;28;20217;-72
2023/10/18 02:37:16;;;;;;;9.07;5.23;;;6.20;99.90;;;;;;5005981;28;20240;-74
2023/10/18 02:39:42;;;;;;;12.27;5.17;;;6.20;99.90;;;;;;5005546;28;20653;-74
2023/10/18 02:42:08;;;;;;;7.03;4.20;;;6.20;99.90;;;;;;5008407;28;20296;-75
2023/10/18 02:44:35;;;;;;;6.93;4.40;;;6.20;99.90;;;;;;5008376;28;20201;-74
2023/10/18 02:49:51;;;;;;;6.33;4.17;;;6.20;99.90;;;;;;5009514;28;20223;-74
2023/10/18 02:52:17;;;;;;;10.53;5.33;;;6.10;99.90;;;;;;5009510;28;20213;-74
2023/10/18 02:54:45;;;;;;;6.13;3.93;;;6.10;99.90;;;;;;5005408;28;20220;-75
2023/10/18 02:57:11;;;;;;;6.97;4.37;;;6.10;99.90;;;;;;5001463;28;20202;-74
2023/10/18 02:59:40;;;;;;;7.73;5.00;;;6.10;99.90;;;;;;5009306;28;20219;-74
2023/10/18 03:02:13;;;;;;;7.80;4.43;;;6.10;99.90;;;;;;5007709;28;20249;-76
2023/10/18 03:04:39;;;;;;;6.27;4.10;;;6.10;99.90;;;;;;5007886;28;20232;-74
2023/10/18 03:07:08;;;;;;;8.70;4.37;;;6.10;99.90;;;;;;5008740;28;20220;-74
2023/10/18 03:12:02;;;;;;;6.23;3.97;;;6.00;99.90;;;;;;5003124;28;20659;-74
2023/10/18 03:14:41;;;;;;;9.33;4.20;;;6.00;99.90;;;;;;5022897;28;20201;-74
2023/10/18 03:17:29;;;;;;;9.27;4.67;;;6.00;99.90;;;;;;5005720;28;20216;-74
2023/10/18 03:19:55;;;;;;;9.00;4.63;;;6.00;99.90;;;;;;5022912;28;20699;-74
2023/10/18 03:22:23;;;;;;;7.73;4.27;;;6.00;99.90;;;;;;5024997;28;20263;-74
2023/10/18 03:24:56;;;;;;;8.40;4.07;;;6.00;99.90;;;;;;5009732;28;20266;-72
2023/10/18 03:27:25;;;;;;;6.57;4.20;;;6.00;99.90;;;;;;5009291;28;20259;-74
2023/10/18 03:29:57;;;;;;;9.53;4.97;;;5.90;99.90;;;;;;5012129;28;20185;-72
2023/10/18 03:32:24;;;;;;;8.57;4.60;;;5.90;99.90;;;;;;5024275;28;20286;-73
2023/10/18 03:34:52;;;;;;;9.23;4.53;;;5.90;99.90;;;;;;5012134;28;20217;-73
2023/10/18 03:37:20;;;;;;;9.03;5.03;;;5.90;99.90;;;;;;5027672;28;20232;-76
2023/10/18 03:39:52;;;;;;;9.43;4.90;;;5.90;99.90;;;;;;5013114;28;20302;-73
2023/10/18 03:42:30;;;;;;;8.43;4.57;;;5.90;99.90;;;;;;5012102;28;20348;-74
2023/10/18 03:45:00;;;;;;;9.07;5.00;;;5.90;99.90;;;;;;5009310;28;20584;-72
2023/10/18 03:47:36;;;;;;;7.93;4.97;;;5.90;99.90;;;;;;5012581;28;20224;-74
2023/10/18 03:50:02;;;;;;;6.60;4.80;;;5.90;99.90;;;;;;5013240;28;20243;-74
2023/10/18 03:52:29;;;;;;;11.73;5.43;;;5.80;99.90;;;;;;5023304;28;20236;-74
2023/10/18 03:57:28;;;;;;;13.00;6.03;;;5.80;99.90;;;;;;5011090;28;20219;-75
2023/10/18 04:00:22;;;;;;;8.10;5.33;;;5.80;99.90;;;;;;5012535;28;20273;-74
2023/10/18 04:02:45;;;;;;;9.10;5.00;;;5.80;99.90;;;;;;5010076;28;20440;-75
2023/10/18 04:05:22;;;;;;;8.27;5.93;;;5.80;99.90;;;;;;5019895;28;20224;-74
2023/10/18 04:07:48;;;;;;;11.70;5.70;;;5.70;99.90;;;;;;5012298;28;20213;-73
2023/10/18 04:10:17;;;;;;;12.60;5.40;;;5.70;99.90;;;;;;5010943;28;20699;-75
2023/10/18 04:12:44;;;;;;;10.20;6.17;;;5.70;99.90;;;;;;5006612;28;20304;-74
2023/10/18 04:15:22;;;;;;;13.60;6.13;;;5.70;99.90;;;;;;5020641;28;20208;-77
2023/10/18 04:18:03;;;;;;;12.80;6.13;;;5.70;99.90;;;;;;5011869;28;20188;-74
2023/10/18 04:20:32;;;;;;;13.57;6.23;;;5.70;99.90;;;;;;5010142;28;20201;-74
2023/10/18 04:22:57;;;;;;;11.33;5.50;;;5.70;99.90;;;;;;5020901;28;20730;-72
2023/10/18 04:25:26;;;;;;;11.63;5.83;;;5.70;99.90;;;;;;5012711;28;20201;-74
2023/10/18 04:27:53;;;;;;;10.73;6.70;;;5.70;99.90;;;;;;5011342;28;20216;-72
2023/10/18 04:30:22;;;;;;;13.53;6.90;;;5.70;99.90;;;;;;5028099;28;20177;-74
2023/10/18 04:32:53;;;;;;;11.23;6.00;;;5.70;99.90;;;;;;5011972;28;20188;-74
2023/10/18 04:35:25;;;;;;;10.67;6.30;;;5.80;99.90;;;;;;5010065;28;20733;-74
2023/10/18 04:37:53;;;;;;;9.83;5.90;;;5.80;99.90;;;;;;5010733;28;20703;-74
2023/10/18 04:40:34;;;;;;;12.63;6.00;;;5.70;99.90;;;;;;5007821;28;20204;-74
2023/10/18 04:43:00;;;;;;;10.33;6.00;;;5.70;99.90;;;;;;5013009;28;20220;-74
2023/10/18 04:45:29;;;;;;;8.17;5.43;;;5.70;99.90;;;;;;5027990;28;20275;-74
2023/10/18 04:48:03;;;;;;;8.20;5.37;;;5.70;99.90;;;;;;5011440;28;20235;-73
2023/10/18 04:50:33;;;;;;;13.23;5.30;;;5.70;99.90;;;;;;5011232;28;20224;-74
2023/10/18 04:53:00;;;;;;;13.40;5.07;;;5.70;99.90;;;;;;5008530;28;20224;-74
2023/10/18 04:55:26;;;;;;;9.13;5.33;;;5.60;99.90;;;;;;5022898;28;20201;-75
2023/10/18 04:57:53;;;;;;;8.87;5.10;;;5.70;99.90;;;;;;5009129;28;20216;-74
2023/10/18 05:00:35;;;;;;;8.40;5.40;;;5.80;99.90;;;;;;5011823;28;20176;-74
2023/10/18 05:03:06;;;;;;;9.17;5.50;;;5.80;99.90;;;;;;5009739;28;20203;-74
2023/10/18 05:05:37;;;;;;;13.30;6.50;;;5.80;99.90;;;;;;5009330;28;20281;-74
2023/10/18 05:08:04;;;;;;;9.57;5.80;;;5.80;99.90;;;;;;5005985;28;20216;-74
2023/10/18 05:10:30;;;;;;;8.57;5.63;;;5.90;99.90;;;;;;5013436;28;20196;-75
2023/10/18 05:13:02;;;;;;;10.67;5.67;;;5.90;99.90;;;;;;5010016;28;20699;-72
2023/10/18 05:15:34;;;;;;;9.30;5.40;;;5.90;99.90;;;;;;5033798;28;20288;-74
2023/10/18 05:18:06;;;;;;;9.43;5.90;;;5.80;99.90;;;;;;5017078;28;20169;-73
2023/10/18 05:21:10;;;;;;;10.30;5.53;;;5.60;99.90;;;;;;5033186;28;20275;-74
2023/10/18 05:23:32;;;;;;;10.27;6.33;;;5.70;99.90;;;;;;5000007;28;20221;-74
2023/10/18 05:41:59;;;;;;;17.60;6.43;;;5.70;99.90;;;;;;5012926;28;20643;-74
2023/10/18 05:44:27;;;;;;;11.60;5.80;;;5.70;99.90;;;;;;5020959;28;20297;-74
2023/10/18 05:46:53;;;;;;;9.43;6.03;;;5.80;99.90;;;;;;5019332;28;20679;-74
2023/10/18 05:49:25;;;;;;;11.07;6.40;;;5.70;99.90;;;;;;5011375;28;20212;-74
2023/10/18 05:54:32;;;;;;;12.03;6.17;;;5.80;99.90;;;;;;5015171;28;20215;-74
2023/10/18 05:56:58;;;;;;;10.47;6.93;;;5.80;99.90;;;;;;5015632;28;20763;-74
2023/10/18 06:01:58;;;;;;;16.10;6.33;;;5.80;99.90;;;;;;5014244;28;20278;-71
2023/10/18 06:04:25;;;;;;;8.47;5.83;;;5.90;99.90;;;;;;5016681;28;20213;-73
2023/10/18 06:06:52;;;;;;;10.43;6.00;;;5.90;99.90;;;;;;5013794;23;20249;-74
2023/10/18 06:09:27;;;;;;;10.27;6.33;;;6.30;99.90;;;;;;4988131;28;20178;-75
2023/10/18 06:11:55;;;;;;;12.60;5.77;;;6.60;99.90;;;;;;4997983;28;20185;-75
2023/10/18 06:15:10;;;;;;;7.70;5.27;;;7.40;99.90;;;;;;4986011;28;20256;-76
2023/10/18 06:17:19;;;;;;;6.70;4.40;;;7.90;99.90;;;;;;4981467;28;20218;-72
2023/10/18 06:19:45;;;;;;;8.53;4.30;;;8.60;99.90;;;;;;4980550;28;20205;-75
2023/10/18 06:22:29;;;;;;;9.77;3.70;;;9.00;99.90;;;;;;4979962;28;20646;-74
2023/10/18 06:24:57;;;;;;;9.33;4.80;;;9.40;99.90;;;;;;4981141;28;20217;-75
2023/10/18 06:27:23;;;;;;;9.03;4.50;;;9.50;99.90;;;;;;4998449;28;20217;-74
2023/10/18 06:29:55;;;;;;;8.38;5.20;;;9.70;99.90;;;;;;4984932;28;20181;-73
2023/10/18 06:32:25;;;;;;;7.28;4.65;;;10.00;99.90;;;;;;4983090;28;20209;-75
2023/10/18 06:34:56;;;;;;;11.80;4.95;;;10.00;99.90;;;;;;4984861;28;20233;-75
2023/10/18 06:37:40;;;;;;;6.75;4.57;;;10.10;99.90;;;;;;4982673;28;20216;-75
2023/10/18 06:40:14;;;;;;;7.28;4.40;;;9.80;99.90;;;;;;4985641;28;20257;-75
2023/10/18 06:42:43;;;;;;;9.05;4.55;;;9.80;99.90;;;;;;4985198;28;20236;-74
2023/10/18 06:45:15;;;;;;;8.07;4.60;;;10.50;99.90;;;;;;4981586;28;20661;-74
2023/10/18 06:47:44;;;;;;;7.93;4.30;;;10.70;99.90;;;;;;4984121;28;20240;-75
2023/10/18 06:50:11;;;;;;;8.88;4.97;;;10.50;99.90;;;;;;4980118;28;20210;-74
2023/10/18 06:52:52;;;;;;;11.20;4.65;;;10.40;99.90;;;;;;4975083;28;20207;-74
2023/10/18 06:55:35;;;;;;;9.10;4.82;;;10.40;99.90;;;;;;4985928;28;20260;-75
2023/10/18 06:58:11;;;;;;;11.13;4.90;;;10.20;99.90;;;;;;4979373;28;20305;-76
2023/10/18 07:00:43;;;;;;;7.88;4.63;;;10.20;99.90;;;;;;4981422;28;20215;-75
2023/10/18 07:03:24;;;;;;;7.63;4.68;;;10.40;99.90;;;;;;4979003;28;20203;-75
2023/10/18 07:05:52;;;;;;;9.25;4.88;;;10.30;99.90;;;;;;4979119;28;20169;-74
2023/10/18 07:08:23;;;;;;;8.65;4.95;;;11.00;99.90;;;;;;4985672;28;20209;-75
2023/10/18 07:11:00;;;;;;;6.80;4.40;;;11.00;99.90;;;;;;4978621;28;20213;-75
2023/10/18 07:13:33;;;;;;;12.30;5.18;;;10.80;99.90;;;;;;4984178;28;20272;-75
2023/10/18 07:16:05;;;;;;;7.10;5.05;;;10.60;99.90;;;;;;4984746;28;20222;-73
2023/10/18 07:18:33;;;;;;;9.30;4.90;;;10.10;99.90;;;;;;4986626;28;20216;-75
2023/10/18 07:21:06;;;;;;;6.50;4.15;;;10.40;99.90;;;;;;4982533;28;20178;-74
2023/10/18 07:23:40;;;;;;;6.97;4.70;;;10.60;99.90;;;;;;4986237;28;20249;-74
2023/10/18 07:26:08;;;;;;;7.05;4.22;;;10.70;99.90;;;;;;4980755;28;20705;-74
2023/10/18 07:28:37;;;;;;;8.30;4.30;;;11.00;99.90;;;;;;4987939;28;20209;-75
2023/10/18 07:31:10;;;;;;;8.43;4.35;;;10.80;99.90;;;;;;4979436;28;20230;-75
2023/10/18 07:33:42;;;;;;;6.57;5.28;;;10.60;99.90;;;;;;4988926;28;20214;-75
2023/10/18 07:36:09;;;;;;;6.85;4.40;;;11.00;99.90;;;;;;4981601;28;20198;-74
2023/10/18 07:38:47;;;;;;;6.10;4.45;;;11.00;99.90;;;;;;4981194;28;20182;-74
2023/10/18 07:41:13;;;;;;;10.35;4.93;;;10.80;99.90;;;;;;4983104;28;20218;-75
2023/10/18 07:43:41;;;;;;;9.20;4.95;;;10.80;99.90;;;;;;4981885;28;20244;-74
2023/10/18 07:46:10;;;;;;;6.38;4.38;;;10.60;99.90;;;;;;4978219;28;20305;-75
2023/10/18 07:48:45;;;;;;;7.05;4.68;;;10.80;99.90;;;;;;4982485;28;20305;-75
2023/10/18 07:51:24;;;;;;;7.72;4.25;;;10.80;99.90;;;;;;4984642;28;20608;-74
2023/10/18 07:53:59;;;;;;;5.97;4.80;;;10.50;99.90;;;;;;4986732;28;20720;-75
2023/10/18 07:56:29;;;;;;;7.15;5.28;;;10.80;99.90;;;;;;4985057;28;20218;-74
2023/10/18 07:59:07;;;;;;;8.15;5.25;;;10.90;99.90;;;;;;4984616;28;20761;-72
2023/10/18 08:01:51;;;;;;;7.85;5.10;;;11.10;99.90;;;;;;4987844;28;20231;-74
2023/10/18 08:04:18;;;;;;;7.97;4.82;;;11.60;99.90;;;;;;4978990;28;20740;-74
2023/10/18 08:06:49;;;;;;;9.98;5.03;;;11.50;99.90;;;;;;4988276;28;20240;-74
2023/10/18 08:09:17;;;;;;;7.60;4.95;;;11.20;99.90;;;;;;4980657;28;20181;-74
2023/10/18 08:11:44;;;;;;;12.10;5.68;;;11.20;99.90;;;;;;4987326;28;20182;-74
2023/10/18 08:14:16;;;;;;;10.13;5.70;;;11.30;99.90;;;;;;4985095;28;20260;-74
2023/10/18 08:16:43;;;;;;;12.48;5.65;;;10.90;99.90;;;;;;4988894;28;20210;-75
2023/10/18 08:19:11;;;;;;;7.78;5.25;;;10.80;99.90;;;;;;4982378;28;20214;-75
2023/10/18 08:21:38;;;;;;;9.88;5.20;;;10.70;99.90;;;;;;4985005;28;20217;-76
2023/10/18 08:24:08;;;;;;;7.75;4.75;;;10.70;99.90;;;;;;4983000;28;20191;-75
2023/10/18 08:26:46;;;;;;;8.15;5.80;;;10.80;99.90;;;;;;4990122;28;20599;-74
2023/10/18 08:29:13;;;;;;;8.15;5.18;;;11.10;99.90;;;;;;4985071;28;20220;-75
2023/10/18 08:31:39;;;;;;;7.68;5.18;;;11.40;99.90;;;;;;4982634;28;20206;-76
2023/10/18 08:34:05;;;;;;;8.32;5.00;;;11.30;99.90;;;;;;4986593;28;20638;-74
2023/10/18 08:36:34;;;;;;;11.85;5.45;;;11.40;99.90;;;;;;4986083;28;20211;-75
2023/10/18 08:39:03;;;;;;;8.88;4.85;;;11.40;99.90;;;;;;4988120;28;20189;-73
2023/10/18 08:41:32;;;;;;;11.38;5.38;;;11.30;99.90;;;;;;4984127;28;20225;-74
2023/10/18 08:44:19;;;;;;;9.18;5.55;;;11.40;99.90;;;;;;4985131;28;20213;-73
2023/10/18 08:46:54;;;;;;;8.70;5.03;;;11.40;99.90;;;;;;4978465;28;20201;-74
2023/10/18 08:49:23;;;;;;;14.82;6.10;;;11.70;99.90;;;;;;4984912;28;22616;-75
2023/10/18 08:52:04;;;;;;;10.75;5.60;;;11.60;99.90;;;;;;4982857;28;20218;-75
2023/10/18 08:54:32;;;;;;;14.15;5.70;;;11.70;99.90;;;;;;4987284;28;20202;-75
2023/10/18 08:56:59;;;;;;;7.18;5.15;;;11.70;99.90;;;;;;4981617;28;20202;-74
2023/10/18 08:59:27;;;;;;;8.73;5.78;;;12.10;99.90;;;;;;4986878;28;20229;-74
2023/10/18 09:04:36;;;;;;;7.85;5.05;;;12.10;99.90;;;;;;4986270;28;20233;-74
2023/10/18 09:09:55;;;;;;;9.93;4.88;;;11.30;99.90;;;;;;4983682;28;20750;-75
2023/10/18 09:12:35;;;;;;;9.10;4.90;;;11.20;99.90;;;;;;4985663;28;20228;-75
2023/10/18 09:15:26;;;;;;;8.10;4.35;;;11.20;99.90;;;;;;4985679;28;20178;-72
2023/10/18 09:17:47;;;;;;;12.60;7.00;;;11.40;99.90;;;;;;4985245;28;20696;-75
2023/10/18 09:20:15;;;;;;;10.63;4.60;;;11.60;99.90;;;;;;4984463;28;20207;-75
2023/10/18 09:22:47;;;;;;;6.95;4.18;;;11.70;99.90;;;;;;4985247;28;20573;-74
2023/10/18 09:25:13;;;;;;;7.82;4.43;;;11.80;99.90;;;;;;4982456;28;20214;-74
2023/10/18 09:27:39;;;;;;;8.03;4.87;;;11.70;99.90;;;;;;4985894;28;20224;-75
2023/10/18 09:30:10;;;;;;;6.03;4.60;;;11.30;99.90;;;;;;4981056;28;20178;-74
2023/10/18 09:32:36;;;;;;;5.30;3.73;;;11.20;99.90;;;;;;4987721;28;20211;-74
2023/10/18 09:35:09;;;;;;;6.63;3.83;;;11.60;99.90;;;;;;4980832;28;20293;-74
2023/10/18 09:37:38;;;;;;;7.50;4.43;;;11.60;99.90;;;;;;4983921;28;20217;-75
2023/10/18 09:40:05;;;;;;;6.37;5.00;;;11.90;99.90;;;;;;5001392;28;20333;-74
2023/10/18 09:42:31;;;;;;;5.07;3.63;;;12.00;99.90;;;;;;4983420;28;20216;-75
2023/10/18 09:44:57;;;;;;;5.37;3.70;;;11.90;99.90;;;;;;4983907;28;20175;-73
2023/10/18 09:47:26;;;;;;;7.87;3.97;;;12.00;99.90;;;;;;4988122;28;20237;-75
2023/10/18 09:49:55;;;;;;;8.67;3.97;;;12.00;99.90;;;;;;4986519;28;20214;-75
2023/10/18 09:52:24;;;;;;;7.83;4.37;;;12.10;99.90;;;;;;4979831;28;20218;-75
2023/10/18 09:54:51;;;;;;;6.37;4.07;;;12.00;99.90;;;;;;4985944;28;20233;-73
2023/10/18 09:57:23;;;;;;;5.60;3.90;;;12.00;99.90;;;;;;4979491;28;20587;-75
2023/10/18 09:59:56;;;;;;;5.97;3.93;;;11.90;99.90;;;;;;4985299;28;20308;-74
2023/10/18 10:02:24;;;;;;;6.03;3.60;;;11.60;99.90;;;;;;4983965;28;20217;-75
2023/10/18 10:04:54;;;;;;;7.97;4.50;;;11.50;99.90;;;;;;4981740;28;20241;-72
2023/10/18 10:07:37;;;;;;;6.83;4.67;;;11.40;99.90;;;;;;4983246;28;20232;-74
2023/10/18 10:10:17;;;;;;;7.73;4.87;;;11.50;99.90;;;;;;4980460;28;20214;-72
2023/10/18 10:12:44;;;;;;;7.50;3.93;;;11.40;99.90;;;;;;4981543;28;20210;-77
2023/10/18 10:15:13;;;;;;;7.63;4.57;;;11.60;99.90;;;;;;4985035;28;20201;-75
2023/10/18 10:17:55;;;;;;;6.90;4.37;;;11.90;99.90;;;;;;4981944;28;20204;-75
2023/10/18 10:20:21;;;;;;;7.40;4.53;;;12.10;99.90;;;;;;4982264;28;20211;-74
2023/10/18 10:22:48;;;;;;;9.17;4.10;;;12.10;99.90;;;;;;4981207;28;20221;-74
2023/10/18 10:25:30;;;;;;;8.63;4.40;;;11.90;99.90;;;;;;4987881;28;20206;-74
2023/10/18 10:27:59;;;;;;;5.77;3.30;;;12.00;99.90;;;;;;4979737;28;20221;-72
2023/10/18 10:30:35;;;;;;;5.30;3.40;;;11.90;99.90;;;;;;4986052;28;20206;-74
2023/10/18 10:33:05;;;;;;;7.40;3.93;;;11.90;99.90;;;;;;4980635;28;20204;-73
2023/10/18 10:35:32;;;;;;;5.13;3.60;;;12.00;99.90;;;;;;4986535;28;20230;-74
2023/10/18 10:38:01;;;;;;;5.33;3.67;;;12.00;99.90;;;;;;4976518;28;20712;-74
2023/10/18 10:43:10;;;;;;;5.20;3.50;;;12.00;99.90;;;;;;4981522;28;20260;-73
2023/10/18 10:45:53;;;;;;;4.53;3.10;;;12.20;99.90;;;;;;4984901;28;20297;-74
2023/10/18 10:51:20;;;;;;;4.00;2.47;;;12.20;99.90;;;;;;4980833;28;20185;-75
2023/10/18 10:53:58;;;;;;;4.80;3.27;;;12.40;99.90;;;;;;4983926;28;20205;-75
2023/10/18 10:56:26;;;;;;;3.83;2.40;;;12.20;99.90;;;;;;4981685;28;20213;-75
2023/10/18 11:01:39;;;;;;;3.87;2.83;;;12.00;99.90;;;;;;4982531;28;20217;-73
2023/10/18 11:04:46;;;;;;;5.60;2.90;;;11.90;99.90;;;;;;4993626;28;20210;-72
2023/10/18 11:07:13;;;;;;;5.70;2.67;;;12.00;99.90;;;;;;4979577;28;20368;-76
2023/10/18 11:09:43;;;;;;;4.10;2.80;;;12.20;99.90;;;;;;4982440;28;20591;-74
2023/10/18 11:12:11;;;;;;;3.90;3.33;;;12.30;99.90;;;;;;4980426;28;20666;-75
2023/10/18 11:14:37;;;;;;;4.87;2.67;;;12.20;99.90;;;;;;4980823;28;20427;-76
2023/10/18 11:17:17;;;;;;;3.30;2.40;;;12.30;99.90;;;;;;4984570;28;20256;-75
2023/10/18 11:19:44;;;;;;;2.90;2.40;;;12.30;99.90;;;;;;4982201;28;20213;-75
2023/10/18 11:22:11;;;;;;;5.43;3.33;;;12.60;99.90;;;;;;4981440;28;20666;-76
2023/10/18 11:24:39;;;;;;;3.93;2.70;;;12.40;99.90;;;;;;4985178;28;20236;-74
2023/10/18 11:27:10;;;;;;;4.70;2.73;;;12.60;99.90;;;;;;4983241;28;20198;-71
2023/10/18 11:29:39;;;;;;;3.87;2.33;;;12.60;99.90;;;;;;5000213;28;20174;-75
2023/10/18 11:32:17;;;;;;;5.57;2.77;;;12.50;99.90;;;;;;4979879;28;20589;-75
2023/10/18 11:34:46;;;;;;;3.43;2.57;;;12.50;99.90;;;;;;4982722;28;20312;-76
2023/10/18 11:37:34;;;;;;;6.03;2.93;;;12.40;99.90;;;;;;4980625;28;20268;-76
2023/10/18 11:40:14;;;;;;;3.27;2.40;;;12.50;99.90;;;;;;4982836;28;20210;-76
2023/10/18 11:42:53;;;;;;;3.77;2.80;;;12.50;99.90;;;;;;4983096;28;20218;-75
2023/10/18 11:45:20;;;;;;;3.87;2.60;;;12.50;99.90;;;;;;4984661;28;20396;-75
2023/10/18 11:47:51;;;;;;;6.13;3.00;;;12.40;99.90;;;;;;4991077;28;20691;-76
2023/10/18 11:50:23;;;;;;;8.20;2.97;;;12.40;99.90;;;;;;4986747;28;20305;-76
2023/10/18 11:52:49;;;;;;;4.73;2.70;;;12.40;99.90;;;;;;4988637;28;20265;-76
2023/10/18 11:55:15;;;;;;;6.53;3.43;;;12.60;99.90;;;;;;4985915;28;20297;-77
2023/10/18 11:57:46;;;;;;;3.30;2.45;;;12.50;99.90;;;;;;4985192;28;20297;-74
2023/10/18 12:02:51;;;;;;;5.43;2.87;;;12.70;99.90;;;;;;4985515;28;20198;-73
2023/10/18 12:05:23;;;;;;;5.20;3.33;;;12.90;99.90;;;;;;4985704;28;20217;-72
2023/10/18 12:07:49;;;;;;;5.80;3.60;;;12.70;99.90;;;;;;5002634;28;20747;-76
2023/10/18 12:10:34;;;;;;;4.40;3.03;;;12.60;99.90;;;;;;4984625;28;20201;-73
2023/10/18 12:13:11;;;;;;;7.93;3.57;;;12.70;99.90;;;;;;4987904;28;20213;-74
2023/10/18 12:15:37;;;;;;;5.93;2.90;;;12.70;99.90;;;;;;4982511;28;20202;-76
2023/10/18 12:18:06;;;;;;;5.23;3.20;;;12.90;99.90;;;;;;4984417;28;20220;-73
2023/10/18 12:20:35;;;;;;;4.80;3.20;;;12.80;99.90;;;;;;4988316;28;20170;-72
2023/10/18 12:23:10;;;;;;;4.33;3.00;;;12.90;99.90;;;;;;4981291;28;20214;-72
2023/10/18 12:25:38;;;;;;;4.77;2.83;;;12.90;99.90;;;;;;4986059;28;20221;-70
2023/10/18 12:28:11;;;;;;;4.00;2.90;;;12.60;99.90;;;;;;4988749;28;20202;-75
2023/10/18 12:30:41;;;;;;;4.57;2.97;;;12.70;99.90;;;;;;4988507;28;20214;-73
2023/10/18 12:33:06;;;;;;;5.00;2.80;;;12.80;99.90;;;;;;4987258;28;20184;-72
2023/10/18 12:35:35;;;;;;;3.87;2.50;;;12.90;99.90;;;;;;4988289;28;20249;-72
2023/10/18 12:38:13;;;;;;;3.77;2.90;;;12.90;99.90;;;;;;4987348;28;20264;-73
2023/10/18 12:40:41;;;;;;;4.60;2.93;;;12.90;99.90;;;;;;4984114;28;20296;-73
2023/10/18 12:43:07;;;;;;;5.40;3.20;;;12.90;99.90;;;;;;4985893;28;20226;-73
2023/10/18 12:45:42;;;;;;;6.60;3.27;;;13.00;99.90;;;;;;4985444;28;20205;-73
2023/10/18 12:48:09;;;;;;;4.93;3.20;;;12.90;99.90;;;;;;4982004;28;20277;-72
2023/10/18 12:50:35;;;;;;;5.05;3.03;;;12.90;99.90;;;;;;4983702;28;20174;-73
2023/10/18 12:55:45;;;;;;;6.30;3.00;;;12.80;99.90;;;;;;4984410;28;20216;-73
2023/10/18 12:58:18;;;;;;;6.57;3.50;;;12.70;99.90;;;;;;4980766;28;20743;-74
2023/10/18 13:00:45;;;;;;;6.97;3.60;;;12.80;99.90;;;;;;4982877;28;20684;-74
2023/10/18 13:05:43;;;;;;;5.73;3.20;;;12.90;99.90;;;;;;4989677;28;20252;-74
2023/10/18 13:08:17;;;;;;;5.73;3.13;;;12.90;99.90;;;;;;4987480;28;20217;-73
2023/10/18 13:10:48;;;;;;;5.00;3.10;;;12.80;99.90;;;;;;4987358;28;20213;-74
2023/10/18 13:13:16;;;;;;;5.60;3.67;;;12.90;99.90;;;;;;4984899;28;20715;-72
2023/10/18 13:15:46;;;;;;;4.43;3.13;;;13.00;99.90;;;;;;4988186;28;20206;-74
2023/10/18 13:18:14;;;;;;;4.53;2.77;;;13.00;99.90;;;;;;4985887;28;20181;-74
2023/10/18 13:20:43;;;;;;;6.10;3.27;;;12.90;99.90;;;;;;4999872;28;20182;-74
2023/10/18 13:23:09;;;;;;;5.57;3.13;;;12.80;99.90;;;;;;4980980;28;20602;-72
2023/10/18 13:25:37;;;;;;;3.47;2.87;;;12.90;99.90;;;;;;4984132;28;20209;-74
2023/10/18 13:28:06;;;;;;;4.90;3.30;;;12.90;99.90;;;;;;4983710;28;20244;-72
2023/10/18 13:30:32;;;;;;;5.70;3.23;;;12.80;99.90;;;;;;4982537;28;20562;-75
2023/10/18 13:33:01;;;;;;;8.13;3.17;;;12.80;99.90;;;;;;4985316;28;20193;-74
2023/10/18 13:35:31;;;;;;;4.90;2.83;;;12.90;99.90;;;;;;4983698;28;20221;-74
2023/10/18 13:37:57;;;;;;;4.13;2.50;;;12.90;99.90;;;;;;4981726;28;20261;-72
2023/10/18 13:40:24;;;;;;;4.90;3.00;;;12.80;99.90;;;;;;4984678;28;20242;-75
2023/10/18 13:42:50;;;;;;;4.17;2.30;;;12.90;99.90;;;;;;4981131;28;20237;-74
2023/10/18 13:45:16;;;;;;;4.00;2.93;;;13.00;99.90;;;;;;4984371;28;20564;-73
2023/10/18 13:47:42;;;;;;;4.83;3.30;;;12.80;99.90;;;;;;4984591;28;20202;-74
2023/10/18 13:50:10;;;;;;;3.87;2.83;;;13.00;99.90;;;;;;4987052;28;20305;-74
2023/10/18 13:52:37;;;;;;;5.43;3.35;;;12.90;99.90;;;;;;4983729;28;20588;-74
2023/10/18 13:55:04;;;;;;;4.33;2.80;;;12.90;99.90;;;;;;4985166;28;20236;-74
2023/10/18 13:57:30;;;;;;;4.17;2.80;;;12.80;99.90;;;;;;4980510;28;20215;-74
2023/10/18 13:59:59;;;;;;;5.17;3.10;;;12.70;99.90;;;;;;4986962;28;20173;-72